Tiempo atmosférico en la estación meteorológica de Sineu, Illes Balears (120 m.)



Fecha
DESCASC
Temp. máxima en grados centígrados (hora)
DESCASC
Temp. mínima en grados centígrados (hora)
DESCASC
Temp. media en grados centígrados
DESCASC
Racha de viento máxima en m/sg (hora)
DESCASC
Velocidad máxima media en intervalos de 10 minutos(hora)
DESCASC
Precipitaciones diarias en mm
DESCASC
Precipitaciones de 00:00 a 06:00 en mm
DESCASC
Precipitaciones de 06:00 a 12:00 en mm
DESCASC
Precipitaciones de 12:00 a 18:00 en mm
DESCASC
Precipitaciones de 18:00 a 24:00 en mm
DESCASC
02-04-2020 16 (11:30) 11.3 (06:20) 13.7 10 (16:30) 6.67 (16:40) 2.8 0 0 1.8 1
01-04-2020 19.8 (14:50) 13.2 (23:59) 16.5 9.72 (13:20) 4.72 (17:10) 0 0 0 0 0
31-03-2020 15.8 (14:30) 10.8 (00:00) 13.3 10.28 (11:30) 6.11 (11:40) 2.6 0 0 2.6 0
30-03-2020 18 (16:10) 8.8 (00:00) 13.4 7.22 (16:20) 3.61 (16:00) 1.6 0 0 1.6 0
29-03-2020 19.7 (16:00) 6 (00:00) 12.9 8.89 (19:10) 5 (18:50) 0 0 0 0 0
28-03-2020 15.4 (14:50) 6.7 (00:00) 11 6.67 (13:50) 4.17 (15:40) 1.2 0 1.2 0 0
27-03-2020 14.4 (15:00) 2.9 (00:00) 8.6 7.5 (10:20) 4.44 (10:20) 0 0 0 0 0
26-03-2020 9.7 (09:00) 4.4 (00:00) 7 9.17 (12:40) 6.11 (12:40) 17 0 6.4 7 3.6
25-03-2020 13.3 (14:00) 4.3 (00:00) 8.8 11.11 (14:20) 6.94 (14:20) 1.6 0 1.6 0 0
24-03-2020 13.9 (15:10) 8.8 (00:00) 11.3 11.39 (17:30) 6.67 (10:40) 0 0 0 0 0
23-03-2020 18.6 (15:10) 6.7 (00:00) 12.7 8.06 (17:00) 5.28 (17:20) 0 0 0 0 0
22-03-2020 15.1 (17:40) 8.5 (03:40) 11.8 5.56 (10:20) 3.33 (10:20) 3 0 1.2 1.8 0
21-03-2020 17.6 (12:30) 9.8 (00:00) 13.7 7.78 (10:10) 4.72 (10:00) 0 0 0 0 0
20-03-2020 17.9 (13:40) 5.8 (00:00) 11.8 9.17 (12:30) 6.11 (11:50) 0 0 0 0 0
19-03-2020 17.5 (13:30) 7.5 (00:00) 12.5 5.83 (17:20) 3.89 (13:10) 0 0 0 0 0
18-03-2020 17.1 (13:40) 10.6 (00:00) 13.9 7.22 (16:50) 4.44 (12:50) 0 0 0 0 0
17-03-2020 17 (14:00) 13.2 (00:00) 15.1 10 (14:10) 5.56 (16:10) 0.2 0.2 0 0 0
16-03-2020 17.3 (16:00) 8.7 (00:00) 13 8.89 (12:40) 5.28 (14:40) 0.4 0 0.4 0 0
15-03-2020 18.4 (14:10) 5.8 (00:00) 12.1 6.67 (16:50) 4.44 (16:50) 0 0 0 0 0
14-03-2020 19.8 (15:20) 9.2 (00:00) 14.5 6.11 (16:00) 3.89 (15:50) 4 3.8 0.2 0 0
13-03-2020 17.9 (13:40) 8.4 (03:50) 13.1 10.28 (10:50) 6.67 (11:10) 0 0 0 0 0
12-03-2020 24.4 (13:50) 9.3 (00:00) 16.8 5.83 (14:30) 3.33 (16:10) 0 0 0 0 0
11-03-2020 23.2 (16:20) 10.5 (00:00) 16.9 7.22 (02:20) 3.61 (04:40) 0 0 0 0 0
10-03-2020 16.9 (14:20) 7.2 (00:00) 12 9.72 (16:30) 5.83 (16:50) 0 0 0 0 0
09-03-2020 16.8 (10:20) 8.3 (00:00) 12.5 10.83 (10:50) 6.39 (13:00) 0 0 0 0 0
08-03-2020 19.3 (13:50) 6.2 (00:00) 12.7 6.67 (14:30) 4.17 (14:20) 0 0 0 0 0
07-03-2020 15.9 (17:10) 4.8 (00:00) 10.3 8.33 (13:40) 4.72 (00:10) 0 0 0 0 0
06-03-2020 16.6 (12:40) 10.2 (00:00) 13.4 20.83 (15:20) 8.89 (15:20) 0.2 0 0 0 0.2
05-03-2020 20 (15:40) 12.9 (00:00) 16.4 16.67 (13:50) 9.17 (14:10) 0 0 0 0 0

Gráficas

Temp. máximas Temp. mínimas Temp. medias Precipitaciones Rachas de viento máximas Velocidades máximas media en intervalos de 10 minutos

Datos horarios

Fecha y hora oficial Temperatura (ºC) Velocidad del viento (km/h) Dirección del viento Racha (km/h) Dirección de racha Precipitación (mm) Presión (hPa) Tendencia (hPa) Humedad (%)
2020-04-03 23:00:00 8.6 0 Calma 4 Sudoeste 0 -- -- 81
2020-04-03 22:00:00 9.7 0 Calma 6 Nordeste 0 -- -- 76
2020-04-03 21:00:00 11.2 0 Calma 10 Nordeste 0 -- -- 72
2020-04-03 20:00:00 13.1 6 Nordeste 16 Nordeste 0 -- -- 63
2020-04-03 19:00:00 14.9 11 Nordeste 20 Nordeste 0 -- -- 54
2020-04-03 18:00:00 15.4 14 Nordeste 22 Nordeste 0 -- -- 51
2020-04-03 17:00:00 15.3 15 Nordeste 26 Nordeste 0 -- -- 55
2020-04-03 16:00:00 14.4 17 Nordeste 30 Norte 0 -- -- 63
2020-04-03 15:00:00 14.9 19 Norte 37 Nordeste 0 -- -- 62
2020-04-03 14:00:00 14.8 21 Norte 39 Norte 0 -- -- 64
2020-04-03 13:00:00 14.3 22 Norte 41 Norte 0 -- -- 64
2020-04-03 12:00:00 13.6 23 Norte 43 Norte 0 -- -- 62
2020-04-03 11:00:00 13.9 27 Norte 45 Norte 0 -- -- 65
2020-04-03 10:00:00 12.9 20 Norte 38 Nordeste 0 -- -- 69
2020-04-03 09:00:00 12.1 20 Norte 36 Norte 0 -- -- 72
2020-04-03 08:00:00 11.6 21 Norte 36 Nordeste 0 -- -- 75
2020-04-03 07:00:00 11.2 18 Norte 32 Norte 0.2 -- -- 80
2020-04-03 06:00:00 11.2 16 Norte 25 Norte 0 -- -- 86
2020-04-03 05:00:00 11.2 12 Norte 24 Norte 0 -- -- 97
2020-04-03 04:00:00 11.1 14 Norte 29 Norte 0.2 -- -- 98
2020-04-03 03:00:00 11.1 14 Norte 26 Norte 1.8 -- -- 98
2020-04-03 02:00:00 11 14 Norte 23 Norte 0.2 -- -- 93
2020-04-03 01:00:00 11.2 10 Norte 19 Norte 0 -- -- 91
2020-04-03 00:00:00 11.4 11 Norte 33 Norte 0 -- -- 93
2020-04-02 23:00:00 11.7 15 Norte 27 Norte 0.2 -- -- 95
2020-04-02 22:00:00 12.1 8 Norte 20 Norte 0 -- -- 96
2020-04-02 21:00:00 12.2 7 Norte 19 Norte 0 -- -- 96
2020-04-02 20:00:00 12.4 12 Norte 26 Nordeste 0.2 -- -- 93
2020-04-02 19:00:00 12 9 Norte 18 Nordeste 0.6 -- -- 88
2020-04-02 18:00:00 12.2 11 Norte 25 Nordeste 0.4 -- -- 79
2020-04-02 17:00:00 13.4 15 Nordeste 36 Norte 0 -- -- 72
2020-04-02 16:00:00 15.4 17 Norte 27 Norte 0 -- -- 69
2020-04-02 15:00:00 14.3 3 Sudeste 6 Norte 0 -- -- 75
2020-04-02 14:00:00 12.4 4 Norte 26 Norte 1.4 -- -- 85
2020-04-02 13:00:00 14.7 8 Este 14 Nordeste 0 -- -- 65
2020-04-02 12:00:00 15.4 7 Sur 23 Sudoeste 0 -- -- 64
2020-04-02 11:00:00 15.8 2 Nordeste 12 Norte 0 -- -- 70
2020-04-02 10:00:00 15.2 4 Este 9 Sudeste 0 -- -- 80
2020-04-02 09:00:00 11.8 0 Calma 5 Noroeste 0 -- -- 99
2020-04-02 08:00:00 11.9 0 Calma 9 Sudeste 0 -- -- 97
2020-04-02 07:00:00 11.8 3 Sudeste 5 Sudeste 0 -- -- 98
2020-04-02 06:00:00 11.8 0 Calma 12 Sur 0 -- -- 96
2020-04-02 05:00:00 12.1 4 Sur 10 Sur 0 -- -- 96
2020-04-02 04:00:00 11.8 4 Sur 9 Sudoeste 0 -- -- 92
2020-04-02 03:00:00 12.4 3 Sudeste 11 Sudoeste 0 -- -- 90
2020-04-02 02:00:00 12.7 5 Sudoeste 13 Sur 0 -- -- 90
2020-04-02 01:00:00 13.2 3 Sur 10 Sur 0 -- -- 88
2020-04-02 00:00:00 13.2 0 Calma 9 Sur 0 -- -- 85
2020-04-01 23:00:00 13.7 4 Sur 10 Sur 0 -- -- 84
2020-04-01 22:00:00 14.3 6 Sur 13 Sudoeste 0 -- -- 81
2020-04-01 21:00:00 14.6 3 Sur 17 Sur 0 -- -- 77
2020-04-01 20:00:00 15.3 9 Sudoeste 17 Sudoeste 0 -- -- 73
2020-04-01 19:00:00 16.4 12 Sudoeste 24 Sudoeste 0 -- -- 67
2020-04-01 18:00:00 17.4 13 Sudoeste 27 Sudoeste 0 -- -- 63
2020-04-01 17:00:00 18.8 16 Sudoeste 29 Sudoeste 0 -- -- 55
2020-04-01 16:00:00 19 14 Sudoeste 23 Sudoeste 0 -- -- 55
2020-04-01 15:00:00 19.1 12 Sudoeste 26 Sudoeste 0 -- -- 54
2020-04-01 14:00:00 19.6 13 Sur 35 Sudeste 0 -- -- 58
2020-04-01 13:00:00 18 17 Este 29 Este 0 -- -- 68
2020-04-01 12:00:00 17.1 12 Este 24 Sudeste 0 -- -- 73
2020-04-01 11:00:00 15.9 15 Este 27 Sudeste 0 -- -- 80
2020-04-01 10:00:00 14.6 10 Este 22 Este 0 -- -- 86
2020-04-01 09:00:00 14.1 9 Este 17 Este 0 -- -- 85
2020-04-01 08:00:00 13.6 8 Este 23 Nordeste 0 -- -- 85
2020-04-01 07:00:00 13.5 11 Este 23 Este 0 -- -- 83
2020-04-01 06:00:00 13.5 8 Nordeste 15 Este 0 -- -- 84
2020-04-01 05:00:00 13.6 8 Este 24 Este 0 -- -- 83
2020-04-01 04:00:00 13.5 11 Este 26 Este 0 -- -- 82
2020-04-01 03:00:00 13.9 13 Este 30 Este 0 -- -- 82
2020-04-01 02:00:00 14 14 Este 26 Este 0 -- -- 84
2020-04-01 01:00:00 14.1 12 Este 27 Este 0 -- -- 84
2020-04-01 00:00:00 14.1 10 Este 29 Este 0 -- -- 84
2020-03-31 23:00:00 14 13 Este 30 Este 0 -- -- 84
2020-03-31 22:00:00 13.8 9 Nordeste 17 Nordeste 0 -- -- 86
2020-03-31 21:00:00 14 9 Nordeste 21 Nordeste 0 -- -- 85
2020-03-31 20:00:00 14.4 9 Este 21 Este 0 -- -- 83
2020-03-31 19:00:00 14.7 11 Este 27 Nordeste 0 -- -- 84
2020-03-31 18:00:00 14.8 14 Nordeste 26 Nordeste 0 -- -- 85
2020-03-31 17:00:00 14.6 12 Nordeste 20 Nordeste 1.8 -- -- 89
2020-03-31 16:00:00 14.4 7 Este 24 Nordeste 0.8 -- -- 81
2020-03-31 15:00:00 15.4 17 Este 31 Sudeste 0 -- -- 70
2020-03-31 14:00:00 15.7 18 Este 30 Este 0 -- -- 69
2020-03-31 13:00:00 15.1 17 Este 36 Este 0 -- -- 71
2020-03-31 12:00:00 14.8 18 Este 37 Este 0 -- -- 71
2020-03-31 11:00:00 14.7 20 Este 36 Este 0 -- -- 70
2020-03-31 10:00:00 14 15 Nordeste 31 Nordeste 0 -- -- 77
2020-03-31 09:00:00 12.8 8 Nordeste 15 Nordeste 0 -- -- 93
2020-03-31 08:00:00 11.5 6 Nordeste 9 Norte 0 -- -- 95
2020-03-31 07:00:00 10.8 7 Norte 10 Norte 0 -- -- 94
2020-03-31 06:00:00 11.4 5 Nordeste 17 Nordeste 0 -- -- 93
2020-03-31 05:00:00 11.5 5 Nordeste 7 Nordeste 0 -- -- 94
2020-03-31 04:00:00 11.5 3 Noroeste 5 Nordeste 0 -- -- 91
2020-03-31 03:00:00 11.4 3 Norte 6 Nordeste 0 -- -- 87
2020-03-31 02:00:00 12 2 Nordeste 8 Nordeste 0 -- -- 85
2020-03-31 01:00:00 12.3 3 Este 7 Sudeste 0 -- -- 82
2020-03-31 00:00:00 12.3 5 Sudeste 10 Este 0 -- -- 83
2020-03-30 23:00:00 12.2 5 Sudeste 10 Sudeste 0 -- -- 83
2020-03-30 22:00:00 13 5 Sudeste 18 Sudeste 0 -- -- 79
2020-03-30 21:00:00 13.8 6 Sudeste 13 Sudeste 0 -- -- 74
2020-03-30 20:00:00 14.8 7 Sudeste 13 Sudoeste 0 -- -- 69
2020-03-30 19:00:00 16.7 6 Sur 17 Sur 0 -- -- 59
2020-03-30 18:00:00 17.1 8 Sur 21 Sur 0 -- -- 57
2020-03-30 17:00:00 17.4 9 Sur 26 Sur 0 -- -- 57
2020-03-30 16:00:00 17.9 13 Sur 24 Sudeste 0.2 -- -- 59
2020-03-30 15:00:00 16.8 10 Sur 25 Sur 0 -- -- 65
2020-03-30 14:00:00 16 6 Sur 21 Sur 0 -- -- 72
2020-03-30 13:00:00 15.5 6 Sudoeste 21 Sur 1.4 -- -- 76
2020-03-30 12:00:00 14.9 8 Sudeste 15 Sur 0 -- -- 76
2020-03-30 11:00:00 13.3 8 Sudeste 13 Sudeste 0 -- -- 94
2020-03-30 10:00:00 12 6 Sudeste 11 Sudeste 0 -- -- 97
2020-03-30 09:00:00 10.5 0 Calma 4 Sur 0 -- -- 99
2020-03-30 08:00:00 9.6 3 Sur 6 Sur 0 -- -- 98
2020-03-30 07:00:00 9.5 3 Sur 8 Sur 0 -- -- 97
2020-03-30 06:00:00 8.8 0 Calma 6 Sur 0 -- -- 93
2020-03-30 05:00:00 9.4 4 Sur 5 Sudeste 0 -- -- 91
2020-03-30 04:00:00 9.4 0 Calma 7 Sudoeste 0 -- -- 85
2020-03-30 03:00:00 10.7 0 Calma 8 Sur 0 -- -- 83
2020-03-30 02:00:00 11.8 2 Sur 21 Sudoeste 0 -- -- 82
2020-03-30 01:00:00 12.2 9 Sudoeste 18 Sudoeste 0 -- -- 84
2020-03-30 00:00:00 12.2 7 Sudoeste 17 Sudoeste 0 -- -- 82
2020-03-29 23:00:00 12.6 8 Sudoeste 18 Sudoeste 0 -- -- 81
2020-03-29 22:00:00 12.8 9 Sudoeste 22 Sudoeste 0 -- -- 78
2020-03-29 21:00:00 13.3 10 Sudoeste 24 Sudoeste 0 -- -- 72
2020-03-29 20:00:00 14.8 14 Sudoeste 32 Sudoeste 0 -- -- 56
2020-03-29 19:00:00 17.5 17 Sudoeste 31 Sudoeste 0 -- -- 42
2020-03-29 18:00:00 18.8 10 Sur 25 Sudoeste 0 -- -- 37
2020-03-29 17:00:00 18.7 13 Sudoeste 25 Sudoeste 0 -- -- 38
2020-03-29 16:00:00 19.7 10 Sudoeste 22 Sudoeste 0 -- -- 35
2020-03-29 15:00:00 18.9 5 Sur 19 Oeste 0 -- -- 35
2020-03-29 14:00:00 18.9 10 Sur 21 Sudeste 0 -- -- 32
2020-03-29 13:00:00 18.2 7 Oeste 16 Oeste 0 -- -- 33
2020-03-29 12:00:00 17.7 6 Oeste 20 Sur 0 -- -- 35
2020-03-29 11:00:00 15.3 4 Sur 7 Sur 0 -- -- 53
2020-03-29 10:00:00 14.1 0 Calma 5 Sur 0 -- -- 66
2020-03-29 09:00:00 8.6 5 Sudoeste 12 Sur 0 -- -- 94
2020-03-29 08:00:00 6.1 0 Calma 3 Sur 0 -- -- 89
2020-03-29 07:00:00 6.6 0 Calma -- -- 0 -- -- 88
2020-03-29 06:00:00 7.5 0 Calma 3 Sur 0 -- -- 87
2020-03-29 05:00:00 8.2 0 Calma 2 Este 0 -- -- 86
2020-03-29 03:00:00 9.4 3 Sur 5 Sur 0 -- -- 83
2020-03-29 01:00:00 10.2 0 Calma 5 Sur 0 -- -- 82
2020-03-29 00:00:00 10.5 0 Calma 9 Sur 0 -- -- 81
2020-03-28 23:00:00 10.4 0 Calma 4 Sur 0 -- -- 82
2020-03-28 22:00:00 10.8 2 Sudoeste 4 Oeste 0 -- -- 78
2020-03-28 21:00:00 12 0 Calma 5 Nordeste 0 -- -- 74
2020-03-28 20:00:00 12.2 3 Nordeste 7 Noroeste 0 -- -- 73
2020-03-28 19:00:00 12.6 5 Norte 15 Nordeste 0 -- -- 70
2020-03-28 18:00:00 13.6 11 Norte 21 Norte 0 -- -- 65
2020-03-28 17:00:00 14.4 14 Norte 23 Nordeste 0 -- -- 61
2020-03-28 16:00:00 14.5 15 Nordeste 23 Nordeste 0 -- -- 58
2020-03-28 15:00:00 15.4 15 Nordeste 24 Norte 0 -- -- 53
2020-03-28 14:00:00 15.2 12 Norte 24 Norte 0 -- -- 60
2020-03-28 13:00:00 14.5 13 Norte 19 Norte 0 -- -- 60
2020-03-28 12:00:00 13.4 9 Norte 16 Norte 0 -- -- 67
2020-03-28 11:00:00 11.4 8 Norte 13 Norte 0 -- -- 78
2020-03-28 10:00:00 10.2 7 Noroeste 16 Norte 0.8 -- -- 87
2020-03-28 09:00:00 9.9 8 Norte 17 Norte 0.4 -- -- 87
2020-03-28 08:00:00 8.5 3 Nordeste 8 Norte 0 -- -- 88
2020-03-28 07:00:00 7.2 3 Noroeste 7 Noroeste 0 -- -- 88
2020-03-28 06:00:00 6.8 0 Calma -- -- 0 -- -- 85
2020-03-28 05:00:00 7.2 0 Calma 4 Norte 0 -- -- 82
2020-03-28 04:00:00 7.5 0 Calma 5 Norte 0 -- -- 82
2020-03-28 03:00:00 8 0 Calma 10 Oeste 0 -- -- 82
2020-03-28 02:00:00 7 0 Calma 4 Oeste 0 -- -- 83
2020-03-28 01:00:00 6.7 0 Calma 2 Sudoeste 0 -- -- 80
2020-03-28 00:00:00 7.9 2 Norte 15 Norte 0 -- -- 76
2020-03-27 23:00:00 8.8 4 Norte 14 Norte 0 -- -- 74
2020-03-27 22:00:00 9.3 9 Norte 15 Norte 0 -- -- 75
2020-03-27 21:00:00 8.6 5 Norte 14 Norte 0 -- -- 76
2020-03-27 20:00:00 8.9 10 Norte 24 Norte 0 -- -- 69
2020-03-27 19:00:00 10.5 8 Nordeste 23 Norte 0 -- -- 55
2020-03-27 18:00:00 12.9 12 Norte 23 Norte 0 -- -- 45
2020-03-27 17:00:00 13.8 14 Nordeste 25 Norte 0 -- -- 39
2020-03-27 16:00:00 14.2 16 Norte 24 Nordeste 0 -- -- 37
2020-03-27 15:00:00 14.4 9 Norte 19 Norte 0 -- -- 38
2020-03-27 14:00:00 14 5 Norte 24 Norte 0 -- -- 32
2020-03-27 13:00:00 13.7 13 Nordeste 25 Nordeste 0 -- -- 33
2020-03-27 12:00:00 13 13 Norte 22 Nordeste 0 -- -- 42
2020-03-27 11:00:00 11.6 13 Norte 27 Norte 0 -- -- 54
2020-03-27 10:00:00 11.3 13 Norte 25 Norte 0 -- -- 56
2020-03-27 09:00:00 9.3 6 Norte 11 Norte 0 -- -- 69
2020-03-27 08:00:00 6.1 0 Calma 3 Sudoeste 0 -- -- 100
2020-03-27 07:00:00 2.9 0 Calma 2 Sudoeste 0 -- -- 94
2020-03-27 06:00:00 3.6 0 Calma 3 Sudoeste 0 -- -- 94
2020-03-27 05:00:00 4.1 0 Calma 4 Sudoeste 0 -- -- 93
2020-03-27 04:00:00 5.7 0 Calma 2 Sudoeste 0 -- -- 92
2020-03-27 03:00:00 5.7 0 Calma 6 Nordeste 0 -- -- 93
2020-03-27 02:00:00 5.5 0 Calma 5 Nordeste 0 -- -- 94
2020-03-27 01:00:00 6.1 0 Calma 3 Nordeste 0 -- -- 94
2020-03-27 00:00:00 7.1 0 Calma 10 Noroeste 0 -- -- 94
2020-03-26 23:00:00 7.2 0 Calma 8 Noroeste 0.4 -- -- 94
2020-03-26 22:00:00 7 0 Calma 9 Nordeste 1 -- -- 93
2020-03-26 21:00:00 7.2 2 Noroeste 15 Norte 1.8 -- -- 90
2020-03-26 20:00:00 7.1 4 Norte 10 Noroeste 0.4 -- -- 86
2020-03-26 19:00:00 7.7 7 Noroeste 11 Noroeste 0 -- -- 84
2020-03-26 18:00:00 7.7 7 Noroeste 10 Oeste 0 -- -- 82
2020-03-26 17:00:00 7.5 3 Nordeste 10 Nordeste 1 -- -- 84
2020-03-26 16:00:00 7.2 6 Nordeste 16 Nordeste 2.8 -- -- 86
2020-03-26 15:00:00 7.4 8 Norte 24 Nordeste 2 -- -- 86
2020-03-26 14:00:00 7.9 11 Nordeste 27 Nordeste 0.2 -- -- 85
2020-03-26 13:00:00 7.5 15 Nordeste 33 Nordeste 1 -- -- 86
2020-03-26 12:00:00 8.6 8 Nordeste 15 Nordeste 2.8 -- -- 78
2020-03-26 11:00:00 8.3 4 Sur 14 Sur 3.2 -- -- 78
2020-03-26 10:00:00 9.4 3 Sudoeste 8 Sur 0.4 -- -- 77
2020-03-26 09:00:00 9.7 4 Sur 10 Sur 0 -- -- 71
2020-03-26 08:00:00 8.5 2 Sur 6 Sudoeste 0 -- -- 74
2020-03-26 07:00:00 5.6 4 Sur 8 Sur 0 -- -- 78
2020-03-26 06:00:00 6 4 Sur 11 Sur 0 -- -- 77
2020-03-26 05:00:00 5.8 4 Sur 9 Sur 0 -- -- 78
2020-03-26 04:00:00 5.4 4 Sudoeste 8 Sur 0 -- -- 72
2020-03-26 03:00:00 4.9 3 Sur 5 Sur 0 -- -- 75
2020-03-26 02:00:00 5.4 0 Calma 5 Sur 0 -- -- 73
2020-03-26 01:00:00 5.3 0 Calma 4 Sur 0 -- -- 75
2020-03-26 00:00:00 4.4 0 Calma 8 Sur 0 -- -- 76
2020-03-25 23:00:00 4.6 4 Sur 7 Sur 0 -- -- 73
2020-03-25 22:00:00 4.7 0 Calma 4 Sur 0 -- -- 72
2020-03-25 21:00:00 5.8 0 Calma 3 Sur 0 -- -- 67
2020-03-25 20:00:00 7.2 0 Calma 5 Nordeste 0 -- -- 61
2020-03-25 19:00:00 9.2 5 Nordeste 20 Nordeste 0 -- -- 51
2020-03-25 18:00:00 11.1 14 Nordeste 25 Nordeste 0 -- -- 42
2020-03-25 17:00:00 12.2 15 Nordeste 31 Nordeste 0 -- -- 37
2020-03-25 16:00:00 12.5 18 Nordeste 34 Nordeste 0 -- -- 37
2020-03-25 15:00:00 12.7 19 Nordeste 40 Nordeste 0 -- -- 37
2020-03-25 14:00:00 13.3 16 Nordeste 33 Nordeste 0 -- -- 37
2020-03-25 13:00:00 12.8 14 Nordeste 29 Nordeste 0 -- -- 37
2020-03-25 12:00:00 12.4 17 Nordeste 29 Norte 0 -- -- 40
2020-03-25 11:00:00 11.6 14 Norte 24 Norte 0 -- -- 48
2020-03-25 10:00:00 8.9 9 Norte 17 Norte 0 -- -- 71
2020-03-25 09:00:00 6.9 4 Norte 28 Norte 1.2 -- -- 81
2020-03-25 08:00:00 6.6 15 Norte 30 Norte 0.4 -- -- 77
2020-03-25 07:00:00 5.5 0 Calma 4 Nordeste 0 -- -- 68
2020-03-25 06:00:00 6 3 Nordeste 12 Nordeste 0 -- -- 62
2020-03-25 05:00:00 7 9 Nordeste 14 Este 0 -- -- 58
2020-03-25 04:00:00 7.6 6 Nordeste 20 Nordeste 0 -- -- 61
2020-03-25 03:00:00 7.9 9 Nordeste 16 Nordeste 0 -- -- 64
2020-03-25 02:00:00 8.2 9 Nordeste 22 Nordeste 0 -- -- 72
2020-03-25 01:00:00 8.5 10 Nordeste 27 Nordeste 0 -- -- 66
2020-03-25 00:00:00 9.3 10 Nordeste 23 Nordeste 0 -- -- 61
2020-03-24 23:00:00 8.9 10 Nordeste 21 Nordeste 0 -- -- 62
2020-03-24 22:00:00 9.8 15 Nordeste 26 Nordeste 0 -- -- 58
2020-03-24 21:00:00 9.1 11 Nordeste 23 Nordeste 0 -- -- 61
2020-03-24 20:00:00 9.8 12 Nordeste 23 Nordeste 0 -- -- 56
2020-03-24 19:00:00 10.8 15 Nordeste 36 Nordeste 0 -- -- 51
2020-03-24 18:00:00 12 19 Nordeste 41 Nordeste 0 -- -- 50
2020-03-24 17:00:00 12.8 18 Nordeste 37 Nordeste 0 -- -- 50
2020-03-24 16:00:00 13.4 22 Nordeste 34 Nordeste 0 -- -- 53
2020-03-24 15:00:00 13.5 20 Nordeste 33 Nordeste 0 -- -- 60
2020-03-24 14:00:00 13.4 21 Este 33 Nordeste 0 -- -- 59
2020-03-24 13:00:00 13.4 22 Nordeste 37 Nordeste 0 -- -- 63
2020-03-24 12:00:00 12.9 19 Nordeste 32 Nordeste 0 -- -- 71
2020-03-24 11:00:00 13 18 Nordeste 37 Nordeste 0 -- -- 73
2020-03-24 10:00:00 13.3 18 Nordeste 33 Nordeste 0 -- -- 71
2020-03-24 09:00:00 12.9 18 Nordeste 34 Nordeste 0 -- -- 73
2020-03-24 08:00:00 11.8 13 Nordeste 23 Nordeste 0 -- -- 79
2020-03-24 07:00:00 11.4 14 Nordeste 23 Nordeste 0 -- -- 84
2020-03-24 06:00:00 11.5 13 Nordeste 21 Nordeste 0 -- -- 86
2020-03-24 05:00:00 11.6 9 Nordeste 15 Nordeste 0 -- -- 87
2020-03-24 04:00:00 12.1 7 Nordeste 16 Nordeste 0 -- -- 85
2020-03-24 03:00:00 11.9 8 Nordeste 16 Nordeste 0 -- -- 86
2020-03-24 02:00:00 11.6 7 Nordeste 14 Nordeste 0 -- -- 88
2020-03-24 01:00:00 11 8 Nordeste 13 Nordeste 0 -- -- 88
2020-03-24 00:00:00 10.8 0 Calma 5 Norte 0 -- -- 85
2020-03-23 23:00:00 11.2 3 Norte 6 Nordeste 0 -- -- 84
2020-03-23 22:00:00 12.1 2 Nordeste 8 Nordeste 0 -- -- 85
2020-03-23 21:00:00 12.5 6 Nordeste 14 Nordeste 0 -- -- 85
2020-03-23 20:00:00 13.1 8 Norte 14 Nordeste 0 -- -- 81
2020-03-23 19:00:00 14 10 Nordeste 25 Nordeste 0 -- -- 79
2020-03-23 18:00:00 15 16 Nordeste 28 Norte 0 -- -- 72
2020-03-23 17:00:00 16.8 19 Nordeste 29 Nordeste 0 -- -- 63
2020-03-23 16:00:00 16.6 17 Nordeste 28 Nordeste 0 -- -- 61
2020-03-23 15:00:00 18.3 13 Este 24 Este 0 -- -- 50
2020-03-23 14:00:00 18 15 Sudeste 26 Este 0 -- -- 58
2020-03-23 13:00:00 17.3 14 Este 22 Este 0 -- -- 61
2020-03-23 12:00:00 17 12 Este 21 Este 0 -- -- 64
2020-03-23 11:00:00 16.6 11 Este 20 Nordeste 0 -- -- 64
2020-03-23 10:00:00 15.1 8 Este 16 Este 0 -- -- 82
2020-03-23 09:00:00 13.3 6 Este 9 Nordeste 0 -- -- 100
2020-03-23 08:00:00 9.1 0 Calma 3 Sudeste 0 -- -- 100
2020-03-23 07:00:00 6.9 0 Calma 2 Sur 0 -- -- 99
2020-03-23 06:00:00 7.5 0 Calma 5 Sudoeste 0 -- -- 99
2020-03-23 05:00:00 7.7 3 Sudoeste 5 Sudoeste 0 -- -- 99
2020-03-23 04:00:00 7.8 0 Calma 2 Sudoeste 0 -- -- 99
2020-03-23 03:00:00 8.6 0 Calma 3 Sudoeste 0 -- -- 99
2020-03-23 02:00:00 8 0 Calma 2 Noroeste 0 -- -- 99
2020-03-23 01:00:00 8.1 0 Calma 5 Sudoeste 0 -- -- 97
2020-03-23 00:00:00 9.3 3 Sur 5 Sur 0 -- -- 97
2020-03-22 23:00:00 9.7 0 Calma 3 Sudoeste 0 -- -- 91
2020-03-22 22:00:00 11.3 0 Calma 4 Sudoeste 0 -- -- 89
2020-03-22 21:00:00 12.9 3 Sur 6 Sudeste 0 -- -- 88
2020-03-22 20:00:00 13.8 0 Calma 6 Sudeste 0 -- -- 86
2020-03-22 19:00:00 13.8 0 Calma 7 Nordeste 0 -- -- 81
2020-03-22 18:00:00 14.7 5 Nordeste 8 Nordeste 0 -- -- 75
2020-03-22 17:00:00 13.5 2 Norte 8 Noroeste 0 -- -- 80
2020-03-22 16:00:00 12.7 3 Nordeste 10 Sudeste 0.2 -- -- 80
2020-03-22 15:00:00 13.1 4 Sudeste 13 Este 0 -- -- 83
2020-03-22 14:00:00 13.7 4 Noroeste 10 Noroeste 0 -- -- 87
2020-03-22 13:00:00 12.6 4 Norte 12 Sudoeste 1.6 -- -- 93
2020-03-22 12:00:00 12.9 3 Sudoeste 13 Este 1.2 -- -- 85
2020-03-22 11:00:00 13.4 0 Calma 20 Este 0 -- -- 78
2020-03-22 10:00:00 14 4 Nordeste 12 Nordeste 0 -- -- 96
2020-03-22 09:00:00 13.4 3 Norte 11 Norte 0 -- -- 99
2020-03-22 08:00:00 11.9 3 Nordeste 5 Norte 0 -- -- 99
2020-03-22 07:00:00 10.9 2 Nordeste 3 Norte 0 -- -- 98
2020-03-22 06:00:00 10.4 0 Calma 3 Oeste 0 -- -- 99
2020-03-22 05:00:00 9.2 0 Calma 6 Oeste 0 -- -- 97
2020-03-22 04:00:00 8.7 3 Oeste 3 Oeste 0 -- -- 93
2020-03-22 03:00:00 9 0 Calma 3 Sudoeste 0 -- -- 92
2020-03-22 02:00:00 9.1 0 Calma 5 Sudoeste 0 -- -- 91
2020-03-22 01:00:00 10.1 2 Sudoeste 5 Sudoeste 0 -- -- 90
2020-03-22 00:00:00 10.4 0 Calma 3 Sudoeste 0 -- -- 87
2020-03-21 23:00:00 10.9 0 Calma 2 Oeste 0 -- -- 87
2020-03-21 22:00:00 11.6 3 Oeste 5 Oeste 0 -- -- 85
2020-03-21 21:00:00 12.7 4 Nordeste 9 Nordeste 0 -- -- 82
2020-03-21 20:00:00 13.2 4 Nordeste 11 Nordeste 0 -- -- 80
2020-03-21 19:00:00 14.2 7 Nordeste 20 Nordeste 0 -- -- 75
2020-03-21 18:00:00 14.9 13 Nordeste 22 Nordeste 0 -- -- 71
2020-03-21 17:00:00 16 12 Nordeste 21 Nordeste 0 -- -- 66
2020-03-21 16:00:00 16.9 11 Nordeste 19 Nordeste 0 -- -- 62
2020-03-21 15:00:00 16.3 10 Nordeste 22 Nordeste 0 -- -- 60
2020-03-21 14:00:00 16.6 15 Nordeste 24 Nordeste 0 -- -- 65
2020-03-21 13:00:00 16.9 12 Nordeste 26 Nordeste 0 -- -- 62
2020-03-21 12:00:00 16.7 12 Nordeste 23 Nordeste 0 -- -- 66
2020-03-21 11:00:00 15.6 15 Nordeste 28 Nordeste 0 -- -- 71
2020-03-21 10:00:00 15.2 17 Nordeste 26 Nordeste 0 -- -- 78
2020-03-21 09:00:00 14.1 12 Norte 20 Norte 0 -- -- 87
2020-03-21 08:00:00 13.2 8 Norte 14 Nordeste 0 -- -- 95
2020-03-21 07:00:00 12.1 5 Noroeste 9 Norte 0 -- -- 92
2020-03-21 06:00:00 11.7 3 Noroeste 9 Noroeste 0 -- -- 93
2020-03-21 05:00:00 10.7 4 Norte 7 Norte 0 -- -- 93
2020-03-21 04:00:00 10.6 4 Norte 10 Norte 0 -- -- 92
2020-03-21 03:00:00 10.9 6 Norte 10 Norte 0 -- -- 93
2020-03-21 02:00:00 10 4 Norte 6 Norte 0 -- -- 88
2020-03-21 01:00:00 9.9 3 Norte 6 Norte 0 -- -- 86
2020-03-21 00:00:00 10.2 2 Nordeste 10 Nordeste 0 -- -- 85
2020-03-20 23:00:00 10.8 7 Nordeste 11 Nordeste 0 -- -- 83
2020-03-20 22:00:00 11.5 5 Nordeste 11 Nordeste 0 -- -- 80
2020-03-20 21:00:00 13.1 9 Nordeste 18 Nordeste 0 -- -- 77
2020-03-20 20:00:00 13.3 8 Nordeste 14 Nordeste 0 -- -- 77
2020-03-20 19:00:00 14.3 10 Nordeste 18 Nordeste 0 -- -- 66
2020-03-20 18:00:00 15.1 9 Nordeste 24 Nordeste 0 -- -- 63
2020-03-20 17:00:00 15.7 14 Nordeste 29 Nordeste 0 -- -- 59
2020-03-20 16:00:00 16 18 Nordeste 28 Norte 0 -- -- 55
2020-03-20 15:00:00 16.6 18 Nordeste 31 Nordeste 0 -- -- 51
2020-03-20 14:00:00 17.5 15 Nordeste 29 Nordeste 0 -- -- 43
2020-03-20 13:00:00 17.4 18 Este 33 Nordeste 0 -- -- 43
2020-03-20 12:00:00 16.5 19 Nordeste 31 Nordeste 0 -- -- 50
2020-03-20 11:00:00 16 18 Nordeste 28 Nordeste 0 -- -- 53
2020-03-20 10:00:00 15.2 10 Nordeste 23 Este 0 -- -- 65
2020-03-20 09:00:00 12.2 4 Norte 8 Norte 0 -- -- 94
2020-03-20 08:00:00 7.9 0 Calma 3 Norte 0 -- -- 98
2020-03-20 07:00:00 6.3 0 Calma -- -- 0 -- -- 94
2020-03-20 06:00:00 6.9 0 Calma 2 Sudeste 0 -- -- 95
2020-03-20 05:00:00 5.9 0 Calma -- -- 0 -- -- 90
2020-03-20 04:00:00 6 0 Calma -- -- 0 -- -- 89
2020-03-20 03:00:00 6.5 0 Calma -- -- 0 -- -- 89
2020-03-20 02:00:00 7.1 0 Calma -- -- 0 -- -- 90
2020-03-20 01:00:00 6.9 0 Calma -- -- 0 -- -- 85
2020-03-20 00:00:00 7.5 0 Calma -- -- 0 -- -- 84
2020-03-19 23:00:00 8.3 0 Calma 2 Sudoeste 0 -- -- 84
2020-03-19 22:00:00 9 0 Calma -- -- 0 -- -- 80
2020-03-19 21:00:00 10.4 0 Calma 4 Noroeste 0 -- -- 80
2020-03-19 20:00:00 11.8 3 Norte 12 Nordeste 0 -- -- 75
2020-03-19 19:00:00 13 8 Nordeste 16 Nordeste 0 -- -- 72
2020-03-19 18:00:00 15 11 Nordeste 21 Nordeste 0 -- -- 64
2020-03-19 17:00:00 16.1 11 Nordeste 21 Nordeste 0 -- -- 56
2020-03-19 16:00:00 15.5 11 Nordeste 21 Nordeste 0 -- -- 57
2020-03-19 15:00:00 15.8 10 Nordeste 21 Nordeste 0 -- -- 56
2020-03-19 14:00:00 16.3 12 Nordeste 21 Nordeste 0 -- -- 57
2020-03-19 13:00:00 17.2 13 Nordeste 18 Nordeste 0 -- -- 56
2020-03-19 12:00:00 15.7 5 Sudeste 16 Norte 0 -- -- 57
2020-03-19 11:00:00 15.9 6 Nordeste 17 Nordeste 0 -- -- 63
2020-03-19 10:00:00 13.8 10 Nordeste 15 Nordeste 0 -- -- 77
2020-03-19 09:00:00 11.8 0 Calma 2 Nordeste 0 -- -- 99
2020-03-19 08:00:00 10.1 0 Calma -- -- 0 -- -- 99
2020-03-19 07:00:00 9.6 0 Calma 2 Noroeste 0 -- -- 99
2020-03-19 06:00:00 7.9 0 Calma -- -- 0 -- -- 98
2020-03-19 05:00:00 8.9 0 Calma 3 Sudoeste 0 -- -- 97
2020-03-19 04:00:00 9 0 Calma -- -- 0 -- -- 97
2020-03-19 03:00:00 9.3 0 Calma -- -- 0 -- -- 98
2020-03-19 02:00:00 9.7 0 Calma -- -- 0 -- -- 98
2020-03-19 01:00:00 10.7 0 Calma 3 Sudoeste 0 -- -- 98
2020-03-19 00:00:00 10.6 0 Calma 2 Sudoeste 0 -- -- 92
2020-03-18 23:00:00 11.2 0 Calma 3 Sudoeste 0 -- -- 91
2020-03-18 22:00:00 12 0 Calma 0 Calma 0 -- -- 90
2020-03-18 21:00:00 12.5 0 Calma -- -- 0 -- -- 88
2020-03-18 20:00:00 13 2 Norte 9 Norte 0 -- -- 88
2020-03-18 19:00:00 13.6 6 Nordeste 18 Nordeste 0 -- -- 84
2020-03-18 18:00:00 14.3 11 Nordeste 24 Nordeste 0 -- -- 79
2020-03-18 17:00:00 15.2 14 Nordeste 26 Nordeste 0 -- -- 74
2020-03-18 16:00:00 15.9 14 Nordeste 23 Nordeste 0 -- -- 71
2020-03-18 15:00:00 16.3 15 Nordeste 23 Nordeste 0 -- -- 70
2020-03-18 14:00:00 16.7 15 Nordeste 25 Nordeste 0 -- -- 68
2020-03-18 13:00:00 16.5 15 Nordeste 25 Norte 0 -- -- 69
2020-03-18 12:00:00 15.7 12 Nordeste 22 Nordeste 0 -- -- 74
2020-03-18 11:00:00 15.6 13 Nordeste 23 Nordeste 0 -- -- 74
2020-03-18 10:00:00 14.6 13 Nordeste 23 Nordeste 0 -- -- 83
2020-03-18 09:00:00 13.8 13 Nordeste 22 Nordeste 0 -- -- 95
2020-03-18 08:00:00 13 10 Nordeste 17 Norte 0 -- -- 96
2020-03-18 07:00:00 12.5 9 Nordeste 14 Norte 0 -- -- 95
2020-03-18 06:00:00 12.6 10 Nordeste 17 Nordeste 0 -- -- 92
2020-03-18 05:00:00 12.7 12 Nordeste 18 Nordeste 0 -- -- 90
2020-03-18 04:00:00 12.8 10 Norte 24 Nordeste 0 -- -- 90
2020-03-18 03:00:00 13 13 Nordeste 21 Nordeste 0 -- -- 92
2020-03-18 02:00:00 13 11 Nordeste 18 Norte 0 -- -- 91
2020-03-18 01:00:00 13.1 12 Norte 23 Norte 0 -- -- 88
2020-03-18 00:00:00 13.2 13 Nordeste 26 Nordeste 0 -- -- 83
2020-03-17 23:00:00 13.3 15 Nordeste 24 Nordeste 0 -- -- 80
2020-03-17 22:00:00 13.5 10 Nordeste 21 Nordeste 0 -- -- 79
2020-03-17 21:00:00 13.6 12 Nordeste 22 Nordeste 0 -- -- 74
2020-03-17 20:00:00 14 13 Nordeste 26 Nordeste 0 -- -- 73
2020-03-17 19:00:00 14.3 16 Nordeste 29 Nordeste 0 -- -- 72
2020-03-17 18:00:00 14.8 13 Nordeste 30 Nordeste 0 -- -- 70
2020-03-17 17:00:00 15.3 17 Nordeste 32 Nordeste 0 -- -- 66
2020-03-17 16:00:00 15.9 15 Nordeste 30 Nordeste 0 -- -- 64
2020-03-17 15:00:00 16.6 17 Nordeste 36 Este 0 -- -- 60
2020-03-17 14:00:00 17 19 Este 35 Este 0 -- -- 63
2020-03-17 13:00:00 15.7 16 Este 34 Este 0 -- -- 72
2020-03-17 12:00:00 15.4 17 Este 34 Este 0 -- -- 76
2020-03-17 11:00:00 15.5 13 Este 27 Este 0 -- -- 78
2020-03-17 10:00:00 15.3 13 Nordeste 23 Nordeste 0 -- -- 82
2020-03-17 09:00:00 14.7 10 Nordeste 17 Nordeste 0 -- -- 90
2020-03-17 08:00:00 14.5 15 Nordeste 28 Este 0 -- -- 93
2020-03-17 07:00:00 14.4 10 Este 24 Nordeste 0 -- -- 97
2020-03-17 06:00:00 14.4 12 Nordeste 20 Nordeste 0 -- -- 95
2020-03-17 05:00:00 14.3 12 Norte 18 Nordeste 0.2 -- -- 92
2020-03-17 04:00:00 14.6 0 Calma 11 Norte 0 -- -- 87
2020-03-17 03:00:00 14.9 7 Nordeste 14 Nordeste 0 -- -- 85
2020-03-17 02:00:00 14.9 8 Nordeste 18 Nordeste 0 -- -- 84
2020-03-17 01:00:00 14.9 7 Nordeste 17 Este 0 -- -- 84
2020-03-17 00:00:00 14.9 8 Este 21 Este 0 -- -- 83
2020-03-16 23:00:00 14.9 9 Este 26 Este 0 -- -- 83
2020-03-16 22:00:00 14.9 9 Este 24 Este 0 -- -- 82
2020-03-16 21:00:00 15 9 Este 21 Este 0 -- -- 83
2020-03-16 20:00:00 15.1 9 Este 18 Este 0 -- -- 82
2020-03-16 19:00:00 15.4 9 Este 19 Este 0 -- -- 80
2020-03-16 18:00:00 16 10 Este 27 Sudeste 0 -- -- 76
2020-03-16 17:00:00 16.5 15 Este 32 Este 0 -- -- 74
2020-03-16 16:00:00 17.3 14 Sudeste 28 Este 0 -- -- 70
2020-03-16 15:00:00 16.8 15 Este 30 Este 0 -- -- 74
2020-03-16 14:00:00 16.2 16 Este 27 Este 0 -- -- 77
2020-03-16 13:00:00 15.8 16 Este 32 Este 0 -- -- 80
2020-03-16 12:00:00 15.4 15 Este 28 Este 0.2 -- -- 81
2020-03-16 11:00:00 14.9 12 Sudeste 24 Sudeste 0 -- -- 85
2020-03-16 10:00:00 14.7 7 Sudeste 16 Este 0 -- -- 91
2020-03-16 09:00:00 13.9 6 Este 13 Sudeste 0 -- -- 96
2020-03-16 08:00:00 12.3 12 Noroeste 22 Noroeste 0.2 -- -- 94
2020-03-16 07:00:00 11.5 4 Nordeste 8 Nordeste 0 -- -- 93
2020-03-16 06:00:00 11.1 0 Calma 8 Nordeste 0 -- -- 93
2020-03-16 05:00:00 10.3 0 Calma 5 Nordeste 0 -- -- 94
2020-03-16 04:00:00 10 0 Calma 4 Este 0 -- -- 93
2020-03-16 03:00:00 9.8 0 Calma 4 Norte 0 -- -- 94
2020-03-16 02:00:00 9.1 0 Calma 5 Norte 0 -- -- 91
2020-03-16 01:00:00 8.8 0 Calma 4 Oeste 0 -- -- 86
2020-03-16 00:00:00 9.4 0 Calma 4 Este 0 -- -- 85
2020-03-15 23:00:00 10.4 0 Calma 3 Oeste 0 -- -- 82
2020-03-15 22:00:00 11.9 2 Nordeste 16 Este 0 -- -- 78
2020-03-15 21:00:00 12.7 9 Este 19 Este 0 -- -- 78
2020-03-15 20:00:00 13.1 12 Este 24 Este 0 -- -- 76
2020-03-15 19:00:00 14 10 Este 23 Sudeste 0 -- -- 66
2020-03-15 18:00:00 16 13 Este 24 Este 0 -- -- 58
2020-03-15 17:00:00 17.3 14 Este 24 Este 0 -- -- 48
2020-03-15 16:00:00 18.1 11 Este 21 Este 0 -- -- 52
2020-03-15 15:00:00 18.2 12 Este 22 Nordeste 0 -- -- 53
2020-03-15 14:00:00 17.9 11 Sudeste 24 Este 0 -- -- 55
2020-03-15 13:00:00 17 11 Este 18 Este 0 -- -- 58
2020-03-15 12:00:00 17.2 6 Sur 16 Sur 0 -- -- 55
2020-03-15 11:00:00 16 5 Sudeste 13 Este 0 -- -- 62
2020-03-15 10:00:00 14.9 2 Sudoeste 6 Sudoeste 0 -- -- 67
2020-03-15 09:00:00 12.4 0 Calma 0 Calma 0 -- -- 95
2020-03-15 08:00:00 7.9 0 Calma 2 Sur 0 -- -- 97
2020-03-15 07:00:00 6.1 0 Calma 6 Sur 0 -- -- 93
2020-03-15 06:00:00 6.5 0 Calma 2 Sur 0 -- -- 90
2020-03-15 05:00:00 6.5 0 Calma 4 Sur 0 -- -- 88
2020-03-15 04:00:00 7.6 0 Calma 4 Sur 0 -- -- 88
2020-03-15 03:00:00 7.5 0 Calma 4 Sur 0 -- -- 84
2020-03-15 02:00:00 9.1 2 Sudoeste 5 Sur 0 -- -- 86
2020-03-15 01:00:00 9.2 0 Calma 6 Sur 0 -- -- 81
2020-03-15 00:00:00 10.2 4 Sur 7 Sur 0 -- -- 80
2020-03-14 23:00:00 10.5 5 Sur 8 Sur 0 -- -- 80
2020-03-14 22:00:00 10.9 3 Sur 8 Sur 0 -- -- 79
2020-03-14 21:00:00 11 4 Sur 6 Sur 0 -- -- 79
2020-03-14 20:00:00 12.1 4 Sur 6 Sur 0 -- -- 75
2020-03-14 19:00:00 14.3 3 Sudeste 9 Este 0 -- -- 64
2020-03-14 18:00:00 15.1 8 Nordeste 15 Este 0 -- -- 63
2020-03-14 17:00:00 15.1 6 Nordeste 19 Norte 0 -- -- 61
2020-03-14 16:00:00 16.4 14 Nordeste 22 Nordeste 0 -- -- 53
2020-03-14 15:00:00 19.3 8 Oeste 15 Oeste 0 -- -- 42
2020-03-14 14:00:00 18.7 6 Sur 13 Este 0 -- -- 46
2020-03-14 13:00:00 17.9 7 Sudeste 13 Este 0 -- -- 45
2020-03-14 12:00:00 16.9 5 Nordeste 14 Nordeste 0 -- -- 45
2020-03-14 11:00:00 15.8 8 Nordeste 18 Este 0 -- -- 52
2020-03-14 10:00:00 14.5 11 Nordeste 19 Este 0 -- -- 64
2020-03-14 09:00:00 12.6 0 Calma 2 Norte 0.2 -- -- 79
2020-03-14 08:00:00 9.7 0 Calma 0 Calma 0 -- -- 96
2020-03-14 07:00:00 9.4 0 Calma 4 Sur 0 -- -- 88
2020-03-14 06:00:00 9.9 0 Calma 4 Sur 0 -- -- 85
2020-03-14 05:00:00 10.3 0 Calma 11 Sudoeste 0.2 -- -- 84
2020-03-14 04:00:00 10.4 9 Oeste 19 Oeste 2.6 -- -- 84
2020-03-14 03:00:00 11.2 0 Calma 5 Oeste 1 -- -- 72
2020-03-14 02:00:00 11.1 0 Calma 3 Noroeste 0 -- -- 70
2020-03-14 01:00:00 10.8 0 Calma 3 Noroeste 0 -- -- 72
2020-03-14 00:00:00 10.7 0 Calma 4 Noroeste 0 -- -- 77
2020-03-13 23:00:00 11.1 0 Calma 4 Norte 0 -- -- 78
2020-03-13 22:00:00 11.4 0 Calma 5 Norte 0 -- -- 79
2020-03-13 21:00:00 11.8 0 Calma 5 Nordeste 0 -- -- 77
2020-03-13 20:00:00 12 3 Nordeste 9 Nordeste 0 -- -- 76
2020-03-13 19:00:00 12.9 6 Nordeste 19 Nordeste 0 -- -- 73
2020-03-13 18:00:00 14.6 14 Nordeste 24 Nordeste 0 -- -- 67
2020-03-13 17:00:00 16.1 14 Norte 27 Norte 0 -- -- 62
2020-03-13 16:00:00 16.8 14 Nordeste 28 Norte 0 -- -- 61
2020-03-13 15:00:00 17.1 18 Nordeste 32 Nordeste 0 -- -- 59
2020-03-13 14:00:00 17.4 23 Nordeste 35 Nordeste 0 -- -- 58
2020-03-13 13:00:00 17.7 22 Nordeste 36 Nordeste 0 -- -- 57
2020-03-13 12:00:00 16.9 22 Nordeste 37 Nordeste 0 -- -- 66
2020-03-13 11:00:00 16.6 23 Nordeste 37 Nordeste 0 -- -- 64
2020-03-13 10:00:00 15.9 17 Nordeste 28 Nordeste 0 -- -- 69
2020-03-13 09:00:00 14.4 10 Norte 19 Nordeste 0 -- -- 83
2020-03-13 08:00:00 12 6 Norte 12 Norte 0 -- -- 89
2020-03-13 07:00:00 11.1 5 Norte 10 Norte 0 -- -- 86
2020-03-13 06:00:00 10.8 5 Norte 9 Noroeste 0 -- -- 82
2020-03-13 05:00:00 11 5 Noroeste 8 Norte 0 -- -- 80
2020-03-13 04:00:00 8.5 0 Calma 5 Noroeste 0 -- -- 72
2020-03-13 03:00:00 9.5 0 Calma 3 Noroeste 0 -- -- 67
2020-03-13 02:00:00 10.3 0 Calma 6 Sur 0 -- -- 61
2020-03-13 01:00:00 11.8 4 Sudeste 9 Sudeste 0 -- -- 55
2020-03-13 00:00:00 10.9 2 Sur 4 Sur 0 -- -- 56
2020-03-12 23:00:00 11.6 0 Calma 5 Sur 0 -- -- 56
2020-03-12 22:00:00 12.7 0 Calma 5 Sur 0 -- -- 55
2020-03-12 21:00:00 14 0 Calma 9 Sur 0 -- -- 52
2020-03-12 20:00:00 15.9 4 Sur 6 Sur 0 -- -- 43
2020-03-12 19:00:00 18.6 4 Sur 10 Sudoeste 0 -- -- 35
2020-03-12 18:00:00 21.7 6 Sur 17 Sur 0 -- -- 29
2020-03-12 17:00:00 23 9 Sur 21 Sur 0 -- -- 24
2020-03-12 16:00:00 23.8 10 Sur 18 Sur 0 -- -- 22
2020-03-12 15:00:00 24 11 Sur 21 Sudeste 0 -- -- 21
2020-03-12 14:00:00 24.4 10 Sur 18 Sur 0 -- -- 26
2020-03-12 13:00:00 23.4 9 Sur 17 Sur 0 -- -- 26
2020-03-12 12:00:00 22.4 7 Sur 16 Sur 0 -- -- 27
2020-03-12 11:00:00 20.3 9 Sur 17 Sudeste 0 -- -- 35
2020-03-12 10:00:00 18.4 6 Sur 13 Sur 0 -- -- 43
2020-03-12 09:00:00 15 6 Sur 12 Sur 0 -- -- 50
2020-03-12 08:00:00 12.3 5 Sur 12 Sudeste 0 -- -- 49
2020-03-12 07:00:00 11.4 4 Sur 9 Sur 0 -- -- 50
2020-03-12 06:00:00 12.8 5 Sur 10 Sur 0 -- -- 45
2020-03-12 05:00:00 12.2 5 Sur 9 Sur 0 -- -- 59
2020-03-12 04:00:00 10 4 Sur 8 Sur 0 -- -- 81
2020-03-12 03:00:00 9.3 0 Calma 5 Sur 0 -- -- 86
2020-03-12 02:00:00 10 0 Calma 5 Sur 0 -- -- 86
2020-03-12 01:00:00 11.5 3 Sur 10 Sur 0 -- -- 87
2020-03-12 00:00:00 11.8 0 Calma 5 Sur 0 -- -- 87
2020-03-11 23:00:00 13 0 Calma 6 Sudoeste 0 -- -- 86
2020-03-11 22:00:00 13.6 4 Sudoeste 12 Sudoeste 0 -- -- 83
2020-03-11 21:00:00 14.1 4 Sur 13 Sudoeste 0 -- -- 78
2020-03-11 20:00:00 15 5 Sudoeste 16 Sudoeste 0 -- -- 75
2020-03-11 19:00:00 17 8 Sudoeste 12 Sudoeste 0 -- -- 65
2020-03-11 18:00:00 21 6 Oeste 14 Oeste 0 -- -- 49
2020-03-11 17:00:00 22.7 9 Oeste 15 Oeste 0 -- -- 42
2020-03-11 16:00:00 23 4 Oeste 16 Oeste 0 -- -- 39
2020-03-11 15:00:00 22.6 8 Sudoeste 19 Oeste 0 -- -- 40
2020-03-11 14:00:00 22.4 9 Sudoeste 21 Sudoeste 0 -- -- 40
2020-03-11 13:00:00 21.1 4 Nordeste 13 Norte 0 -- -- 51
2020-03-11 12:00:00 19.9 3 Norte 14 Este 0 -- -- 54
2020-03-11 11:00:00 18.2 6 Sudeste 10 Oeste 0 -- -- 59
2020-03-11 10:00:00 16.7 2 Noroeste 12 Oeste 0 -- -- 64
2020-03-11 09:00:00 14.4 0 Calma 5 Sur 0 -- -- 76
2020-03-11 08:00:00 11.3 0 Calma 8 Sudeste 0 -- -- 81
2020-03-11 07:00:00 10.8 2 Noroeste 6 Oeste 0 -- -- 80
2020-03-11 06:00:00 12.6 4 Sur 17 Sudoeste 0 -- -- 78
2020-03-11 05:00:00 12.4 8 Sudoeste 23 Sudoeste 0 -- -- 84
2020-03-11 04:00:00 12.4 4 Sudoeste 16 Sudoeste 0 -- -- 85
2020-03-11 03:00:00 12.6 9 Sudoeste 26 Sudoeste 0 -- -- 83
2020-03-11 02:00:00 12.5 9 Sudoeste 23 Sudoeste 0 -- -- 84
2020-03-11 01:00:00 12.5 7 Sudoeste 21 Sur 0 -- -- 85
2020-03-11 00:00:00 12.9 15 Sudoeste 27 Sudoeste 0 -- -- 84
2020-03-10 23:00:00 12.8 14 Sudoeste 24 Sudoeste 0 -- -- 82
2020-03-10 22:00:00 12.7 10 Sudoeste 23 Sudoeste 0 -- -- 79
2020-03-10 21:00:00 13 10 Sudoeste 26 Sudoeste 0 -- -- 76
2020-03-10 20:00:00 13.2 15 Sudoeste 30 Sudoeste 0 -- -- 74
2020-03-10 19:00:00 13.5 15 Sudoeste 35 Sudoeste 0 -- -- 69
2020-03-10 18:00:00 14.3 15 Sudoeste 34 Sudoeste 0 -- -- 65
2020-03-10 17:00:00 15.4 19 Sudoeste 35 Sudoeste 0 -- -- 58
2020-03-10 16:00:00 16.6 19 Sudoeste 34 Sudoeste 0 -- -- 50
2020-03-10 15:00:00 16.8 18 Sudoeste 33 Sudoeste 0 -- -- 48
2020-03-10 14:00:00 16 16 Sudoeste 28 Oeste 0 -- -- 49
2020-03-10 13:00:00 16.4 13 Sudoeste 22 Sudoeste 0 -- -- 47
2020-03-10 12:00:00 16.3 9 Oeste 21 Sur 0 -- -- 46
2020-03-10 11:00:00 14.3 5 Sudoeste 12 Sudoeste 0 -- -- 55
2020-03-10 10:00:00 13.5 3 Nordeste 5 Norte 0 -- -- 61
2020-03-10 09:00:00 11.7 2 Sur 7 Sur 0 -- -- 71
2020-03-10 08:00:00 9.6 0 Calma 6 Sudoeste 0 -- -- 78
2020-03-10 07:00:00 8.3 0 Calma 4 Sudoeste 0 -- -- 82
2020-03-10 06:00:00 7.2 0 Calma 2 Sudeste 0 -- -- 80
2020-03-10 05:00:00 7.8 0 Calma 7 Norte 0 -- -- 78
2020-03-10 04:00:00 8.2 0 Calma 10 Nordeste 0 -- -- 74
2020-03-10 03:00:00 9.6 5 Nordeste 14 Norte 0 -- -- 70
2020-03-10 02:00:00 10.4 4 Nordeste 12 Nordeste 0 -- -- 70
2020-03-10 01:00:00 10.2 0 Calma 17 Este 0 -- -- 74
2020-03-10 00:00:00 10.1 3 Sudeste 10 Nordeste 0 -- -- 74
2020-03-09 23:00:00 9.8 6 Este 12 Este 0 -- -- 77
2020-03-09 22:00:00 10.1 4 Este 13 Este 0 -- -- 75
2020-03-09 21:00:00 10.7 5 Sudeste 10 Sudeste 0 -- -- 75
2020-03-09 20:00:00 11.3 5 Sur 13 Sudeste 0 -- -- 71
2020-03-09 19:00:00 12.9 7 Sudeste 11 Sudeste 0 -- -- 50
2020-03-09 18:00:00 15.1 5 Norte 15 Oeste 0 -- -- 45
2020-03-09 17:00:00 15 9 Oeste 21 Oeste 0 -- -- 40
2020-03-09 16:00:00 15.4 10 Noroeste 18 Noroeste 0 -- -- 40
2020-03-09 15:00:00 14.9 6 Noroeste 19 Norte 0 -- -- 52
2020-03-09 14:00:00 14.3 10 Nordeste 31 Nordeste 0 -- -- 59
2020-03-09 13:00:00 15.2 23 Nordeste 35 Nordeste 0 -- -- 60
2020-03-09 12:00:00 16.1 17 Norte 29 Norte 0 -- -- 43
2020-03-09 11:00:00 15.8 18 Norte 39 Noroeste 0 -- -- 40
2020-03-09 10:00:00 16.2 9 Noroeste 15 Noroeste 0 -- -- 42
2020-03-09 09:00:00 15.4 12 Oeste 22 Sudoeste 0 -- -- 45
2020-03-09 08:00:00 14.4 12 Oeste 22 Oeste 0 -- -- 52
2020-03-09 07:00:00 8.7 5 Sudoeste 9 Sudoeste 0 -- -- 89
2020-03-09 06:00:00 8.9 0 Calma 9 Norte 0 -- -- 84
2020-03-09 05:00:00 10.5 0 Calma 7 Sudoeste 0 -- -- 84
2020-03-09 04:00:00 11 0 Calma 6 Sudoeste 0 -- -- 82
2020-03-09 03:00:00 11.7 0 Calma 8 Oeste 0 -- -- 82
2020-03-09 02:00:00 12.2 5 Sudoeste 18 Sudoeste 0 -- -- 82
2020-03-09 01:00:00 12.6 11 Sudoeste 21 Oeste 0 -- -- 82
2020-03-09 00:00:00 12.7 10 Sudoeste 18 Sudoeste 0 -- -- 81
2020-03-08 23:00:00 12.6 7 Sudoeste 17 Sur 0 -- -- 83
2020-03-08 22:00:00 12.1 4 Sudoeste 12 Sudoeste 0 -- -- 81
2020-03-08 21:00:00 11.8 4 Sudoeste 13 Oeste 0 -- -- 73
2020-03-08 20:00:00 12.9 8 Oeste 20 Sudoeste 0 -- -- 62
2020-03-08 19:00:00 14.6 8 Sudoeste 17 Sudoeste 0 -- -- 48
2020-03-08 18:00:00 18.3 6 Oeste 14 Sudoeste 0 -- -- 35
2020-03-08 17:00:00 17.8 10 Sudeste 17 Sudeste 0 -- -- 36
2020-03-08 16:00:00 17.6 13 Nordeste 22 Nordeste 0 -- -- 44
2020-03-08 15:00:00 18.1 14 Nordeste 24 Nordeste 0 -- -- 45
2020-03-08 14:00:00 19.2 10 Nordeste 21 Oeste 0 -- -- 40
2020-03-08 13:00:00 18.3 6 Sudoeste 19 Sudeste 0 -- -- 40
2020-03-08 12:00:00 17.9 5 Sudoeste 19 Sudoeste 0 -- -- 40
2020-03-08 11:00:00 16.4 8 Sudoeste 19 Oeste 0 -- -- 46
2020-03-08 10:00:00 14.9 11 Sudoeste 21 Sudoeste 0 -- -- 51
2020-03-08 09:00:00 13 7 Sudoeste 14 Sudoeste 0 -- -- 63
2020-03-08 08:00:00 7.7 0 Calma 4 Sudoeste 0 -- -- 79
2020-03-08 07:00:00 7.5 2 Oeste 9 Sur 0 -- -- 74
2020-03-08 06:00:00 8.7 5 Sur 8 Sur 0 -- -- 72
2020-03-08 05:00:00 9.2 5 Sur 7 Sudeste 0 -- -- 69
2020-03-08 04:00:00 9.2 3 Sur 8 Sudeste 0 -- -- 70
2020-03-08 03:00:00 8.4 2 Sur 5 Sur 0 -- -- 75
2020-03-08 02:00:00 7.8 0 Calma 6 Sur 0 -- -- 76
2020-03-08 01:00:00 6.6 0 Calma 5 Sur 0 -- -- 76
2020-03-08 00:00:00 6.5 0 Calma 7 Sur 0 -- -- 73
2020-03-07 23:00:00 7.1 0 Calma 6 Sur 0 -- -- 71
2020-03-07 22:00:00 8.8 4 Sur 12 Sur 0 -- -- 68
2020-03-07 21:00:00 9.1 9 Sur 13 Sur 0 -- -- 64
2020-03-07 20:00:00 9.9 8 Sur 12 Sur 0 -- -- 50
2020-03-07 19:00:00 12.3 3 Sudoeste 13 Sudoeste 0 -- -- 26
2020-03-07 18:00:00 15.2 10 Oeste 22 Oeste 0 -- -- 18
2020-03-07 17:00:00 15.8 10 Oeste 22 Oeste 0 -- -- 18
2020-03-07 16:00:00 15.2 7 Norte 24 Noroeste 0 -- -- 25
2020-03-07 15:00:00 15 11 Norte 27 Noroeste 0 -- -- 28
2020-03-07 14:00:00 15.5 8 Nordeste 30 Nordeste 0 -- -- 23
2020-03-07 13:00:00 14.9 6 Noroeste 21 Norte 0 -- -- 28
2020-03-07 12:00:00 14.3 8 Noroeste 21 Norte 0 -- -- 38
2020-03-07 11:00:00 13.5 9 Norte 17 Norte 0 -- -- 41
2020-03-07 10:00:00 12.3 4 Noroeste 14 Noroeste 0 -- -- 49
2020-03-07 09:00:00 10.1 5 Noroeste 9 Sudoeste 0 -- -- 57
2020-03-07 08:00:00 5.3 2 Sudoeste 5 Sudoeste 0 -- -- 73
2020-03-07 07:00:00 5.8 2 Sudoeste 8 Oeste 0 -- -- 69
2020-03-07 06:00:00 6.7 6 Oeste 10 Oeste 0 -- -- 64
2020-03-07 05:00:00 8 5 Oeste 15 Noroeste 0 -- -- 58
2020-03-07 04:00:00 9.2 10 Noroeste 23 Noroeste 0 -- -- 51
2020-03-07 03:00:00 9.7 15 Noroeste 28 Noroeste 0 -- -- 48
2020-03-07 02:00:00 9.8 14 Noroeste 28 Noroeste 0 -- -- 48
2020-03-07 01:00:00 9.6 3 Noroeste 29 Noroeste 0 -- -- 49
2020-03-07 00:00:00 10.3 18 Noroeste 37 Norte 0 -- -- 46
2020-03-06 23:00:00 10.5 17 Noroeste 33 Noroeste 0 -- -- 45
2020-03-06 22:00:00 10.5 16 Noroeste 34 Oeste 0.2 -- -- 48
2020-03-06 21:00:00 11.8 21 Noroeste 41 Noroeste 0 -- -- 39
2020-03-06 20:00:00 12.5 22 Noroeste 44 Noroeste 0 -- -- 37
2020-03-06 19:00:00 12.1 24 Noroeste 50 Noroeste 0 -- -- 40
2020-03-06 18:00:00 12.7 29 Noroeste 51 Noroeste 0 -- -- 34
2020-03-06 17:00:00 13.5 24 Oeste 45 Oeste 0 -- -- 35
2020-03-06 16:00:00 14.3 26 Oeste 75 Oeste 0 -- -- 33
2020-03-06 15:00:00 14.4 17 Oeste 46 Oeste 0 -- -- 38
2020-03-06 14:00:00 13.9 21 Oeste 37 Noroeste 0 -- -- 40
2020-03-06 13:00:00 15.4 22 Oeste 46 Oeste 0 -- -- 35
2020-03-06 12:00:00 16.5 22 Oeste 44 Noroeste 0 -- -- 31
2020-03-06 11:00:00 15.8 22 Oeste 43 Oeste 0 -- -- 33
2020-03-06 10:00:00 15.1 22 Oeste 39 Oeste 0 -- -- 33
2020-03-06 09:00:00 14.1 10 Oeste 21 Oeste 0 -- -- 44
2020-03-06 08:00:00 12.7 12 Oeste 33 Noroeste 0 -- -- 43
2020-03-06 07:00:00 13.1 18 Oeste 36 Oeste 0 -- -- 37
2020-03-06 06:00:00 12.9 12 Oeste 24 Oeste 0 -- -- 41
2020-03-06 05:00:00 12.8 8 Oeste 18 Oeste 0 -- -- 37
2020-03-06 04:00:00 12.9 10 Oeste 17 Noroeste 0 -- -- 34
2020-03-06 03:00:00 13.1 5 Oeste 13 Noroeste 0 -- -- 25
2020-03-06 02:00:00 14.5 7 Oeste 28 Oeste 0 -- -- 29
2020-03-06 01:00:00 15.4 12 Oeste 25 Oeste 0 -- -- 31
2020-03-06 00:00:00 15.6 13 Oeste 23 Oeste 0 -- -- 38
2020-03-05 23:00:00 15.6 7 Sudoeste 22 Oeste 0 -- -- 41
2020-03-05 22:00:00 17.3 13 Oeste 30 Oeste 0 -- -- 34
2020-03-05 21:00:00 17.6 17 Oeste 35 Sudoeste 0 -- -- 33
2020-03-05 20:00:00 16.5 8 Oeste 25 Oeste 0 -- -- 55
2020-03-05 19:00:00 16.3 14 Sudoeste 35 Sudoeste 0 -- -- 61
2020-03-05 18:00:00 17.3 21 Sudoeste 43 Sudoeste 0 -- -- 54
2020-03-05 17:00:00 18.7 28 Sudoeste 51 Sudoeste 0 -- -- 50
2020-03-05 16:00:00 19.8 23 Sudoeste 51 Sudoeste 0 -- -- 46
2020-03-05 15:00:00 19.1 25 Sudoeste 55 Sudoeste 0 -- -- 47
2020-03-05 14:00:00 18.5 31 Sudoeste 60 Sudoeste 0 -- -- 49
2020-03-05 13:00:00 18.5 28 Sudoeste 57 Sudoeste 0 -- -- 50
2020-03-05 12:00:00 18.1 21 Sudoeste 46 Sudoeste 0 -- -- 50
2020-03-05 11:00:00 17.7 17 Sudoeste 39 Sudoeste 0 -- -- 57
2020-03-05 10:00:00 16.1 21 Sudoeste 36 Sudoeste 0 -- -- 67
2020-03-05 09:00:00 14.8 13 Sudoeste 27 Sudoeste 0 -- -- 78
2020-03-05 08:00:00 13.4 8 Sudoeste 19 Sur 0 -- -- 84
2020-03-05 07:00:00 12.9 7 Sudoeste 16 Sur 0 -- -- 87
2020-03-05 06:00:00 13.1 5 Sur 19 Sudoeste 0 -- -- 95
2020-03-05 05:00:00 13.2 5 Sur 19 Sudoeste 0 -- -- 96
2020-03-05 04:00:00 13.4 9 Sudoeste 18 Sudoeste 0 -- -- 95
2020-03-05 03:00:00 13.4 5 Sudoeste 13 Sudoeste 0 -- -- 89
2020-03-05 02:00:00 13.4 4 Sudoeste 14 Sudoeste 0 -- -- 85
2020-03-05 01:00:00 13.8 5 Sudoeste 12 Sudoeste 0 -- -- 84
2020-03-05 00:00:00 13 5 Sur 14 Sur 0 -- -- 82